createdAt,value
2019-05-23T00:00:09.495Z,5.87
2019-05-23T00:02:41.266Z,5.45
2019-05-23T00:05:22.709Z,5.70
2019-05-23T00:07:54.528Z,7.35
2019-05-23T00:10:26.269Z,5.10
2019-05-23T00:13:05.070Z,4.90
2019-05-23T00:15:46.168Z,5.70
2019-05-23T00:18:15.267Z,6.40
2019-05-23T00:20:47.602Z,6.58
2019-05-23T00:23:19.315Z,5.37
2019-05-23T00:25:50.530Z,4.90
2019-05-23T00:28:27.285Z,5.30
2019-05-23T00:30:59.363Z,6.33
2019-05-23T00:33:32.991Z,6.37
2019-05-23T00:36:03.455Z,6.28
2019-05-23T00:38:34.039Z,5.28
2019-05-23T00:41:07.216Z,6.30
2019-05-23T00:43:43.340Z,6.08
2019-05-23T00:46:15.475Z,5.60
2019-05-23T00:48:47.092Z,6.90
2019-05-23T00:51:17.188Z,7.67
2019-05-23T00:53:46.837Z,7.37
2019-05-23T00:56:21.616Z,5.08
2019-05-23T00:58:51.885Z,6.40
2019-05-23T01:01:21.566Z,6.70
2019-05-23T01:03:55.322Z,6.77
2019-05-23T01:06:26.133Z,6.10
2019-05-23T01:08:59.393Z,5.30
2019-05-23T01:11:31.482Z,6.92
2019-05-23T01:14:00.759Z,5.47
2019-05-23T01:16:30.793Z,6.45
2019-05-23T01:19:02.424Z,6.80
2019-05-23T01:21:43.381Z,7.42
2019-05-23T01:24:24.577Z,6.22
2019-05-23T01:26:56.246Z,5.45
2019-05-23T01:29:37.374Z,8.43
2019-05-23T01:32:01.411Z,5.95
2019-05-23T01:34:32.873Z,7.12
2019-05-23T01:37:10.671Z,7.47
2019-05-23T01:39:42.651Z,5.90
2019-05-23T01:42:14.321Z,5.33
2019-05-23T01:44:45.136Z,5.12
2019-05-23T01:47:16.272Z,5.37
2019-05-23T01:49:47.939Z,4.90
2019-05-23T01:52:36.716Z,8.00
2019-05-23T01:55:11.196Z,5.08
2019-05-23T01:57:45.650Z,7.83
2019-05-23T02:00:17.087Z,5.60
2019-05-23T02:02:51.189Z,5.63
2019-05-23T02:05:20.926Z,6.35
2019-05-23T02:07:51.921Z,6.12
2019-05-23T02:13:05.075Z,6.62
2019-05-23T02:15:38.324Z,6.80
2019-05-23T02:18:09.920Z,7.75
2019-05-23T02:20:40.552Z,6.50
2019-05-23T02:23:13.478Z,7.00
2019-05-23T02:25:44.217Z,7.40
2019-05-23T02:31:17.369Z,7.85
2019-05-23T02:33:52.752Z,9.63
2019-05-23T02:36:21.464Z,9.00
2019-05-23T02:38:55.259Z,6.70
2019-05-23T02:41:37.334Z,8.10
2019-05-23T02:44:14.072Z,8.18
2019-05-23T02:46:53.389Z,6.93
2019-05-23T02:49:25.966Z,6.53
2019-05-23T02:52:00.902Z,8.80
2019-05-23T02:54:30.992Z,6.30
2019-05-23T02:57:05.237Z,7.27
2019-05-23T02:59:42.058Z,7.15
2019-05-23T03:02:28.004Z,6.22
2019-05-23T03:04:59.945Z,7.20
2019-05-23T03:07:31.583Z,9.63
2019-05-23T03:10:05.108Z,8.13
2019-05-23T03:12:37.049Z,8.03
2019-05-23T03:15:09.697Z,7.43
2019-05-23T03:17:43.271Z,7.80
2019-05-23T03:20:13.791Z,8.50
2019-05-23T03:22:48.047Z,9.13
2019-05-23T03:25:22.616Z,8.38
2019-05-23T03:27:56.328Z,10.00
2019-05-23T03:30:39.463Z,9.45
2019-05-23T03:33:11.202Z,7.00
2019-05-23T03:35:59.995Z,7.60
2019-05-23T03:38:31.193Z,8.03
2019-05-23T03:41:03.256Z,9.28
2019-05-23T03:43:33.616Z,7.70
2019-05-23T03:46:08.210Z,7.10
2019-05-23T03:48:38.709Z,7.67
2019-05-23T03:51:19.449Z,7.12
2019-05-23T03:53:49.514Z,6.85
2019-05-23T03:56:20.852Z,8.75
2019-05-23T03:58:51.632Z,8.23
2019-05-23T04:01:23.507Z,9.00
2019-05-23T04:03:55.965Z,8.83
2019-05-23T04:06:29.809Z,9.95
2019-05-23T04:08:58.565Z,7.28
2019-05-23T04:11:33.987Z,7.80
2019-05-23T04:14:04.977Z,7.83
2019-05-23T04:16:35.667Z,8.83
2019-05-23T04:19:16.997Z,8.40
2019-05-23T04:21:46.051Z,7.10
2019-05-23T04:24:15.575Z,8.43
2019-05-23T04:26:45.003Z,7.40
2019-05-23T04:29:15.965Z,7.60
2019-05-23T04:32:03.738Z,8.38
2019-05-23T04:34:18.427Z,8.25
2019-05-23T04:36:49.255Z,8.43
2019-05-23T04:39:20.906Z,7.03
2019-05-23T04:41:51.416Z,8.08
2019-05-23T04:44:26.338Z,8.85
2019-05-23T04:46:55.201Z,7.87
2019-05-23T04:49:24.460Z,7.45
2019-05-23T04:51:55.223Z,8.80
2019-05-23T04:54:25.345Z,7.50
2019-05-23T04:56:55.639Z,8.43
2019-05-23T04:59:24.778Z,7.58
2019-05-23T05:02:00.105Z,7.50
2019-05-23T05:04:40.991Z,6.20
2019-05-23T05:07:14.061Z,8.38
2019-05-23T05:09:44.745Z,7.35
2019-05-23T05:12:16.887Z,7.90
2019-05-23T05:14:49.878Z,8.13
2019-05-23T05:17:22.208Z,7.60
2019-05-23T05:19:53.568Z,7.95
2019-05-23T05:22:23.276Z,7.25
2019-05-23T05:24:52.844Z,9.38
2019-05-23T05:27:23.267Z,8.05
2019-05-23T05:29:55.862Z,7.58
2019-05-23T05:32:43.943Z,10.78
2019-05-23T05:35:06.432Z,8.38
2019-05-23T05:37:36.465Z,9.23
2019-05-23T05:40:10.414Z,10.20
2019-05-23T05:42:42.879Z,10.15
2019-05-23T05:45:17.893Z,7.50
2019-05-23T05:47:49.649Z,7.58
2019-05-23T05:50:19.072Z,7.42
2019-05-23T05:52:48.227Z,6.83
2019-05-23T05:55:17.241Z,7.60
2019-05-23T05:58:08.755Z,8.95
2019-05-23T06:00:44.298Z,8.48
2019-05-23T06:03:19.187Z,8.10
2019-05-23T06:05:54.699Z,9.60
2019-05-23T06:08:24.795Z,6.70
2019-05-23T06:11:05.354Z,8.13
2019-05-23T06:13:45.888Z,7.10
2019-05-23T06:16:15.196Z,8.70
2019-05-23T06:18:44.889Z,8.28
2019-05-23T06:21:19.406Z,7.55
2019-05-23T06:23:51.941Z,6.50
2019-05-23T06:26:35.061Z,7.87
2019-05-23T06:29:08.594Z,7.42
2019-05-23T06:31:41.046Z,6.80
2019-05-23T06:34:10.284Z,7.42
2019-05-23T06:36:39.903Z,8.40
2019-05-23T06:39:14.122Z,5.83
2019-05-23T06:41:47.056Z,6.67
2019-05-23T06:44:17.520Z,6.60
2019-05-23T06:46:48.119Z,8.75
2019-05-23T06:49:19.015Z,7.30
2019-05-23T06:51:49.072Z,6.90
2019-05-23T06:54:19.714Z,7.50
2019-05-23T06:56:49.256Z,6.67
2019-05-23T06:59:20.470Z,6.42
2019-05-23T07:01:57.916Z,6.62
2019-05-23T07:04:42.108Z,5.55
2019-05-23T07:07:13.646Z,6.10
2019-05-23T07:09:45.261Z,6.95
2019-05-23T07:12:14.864Z,6.15
2019-05-23T07:14:44.439Z,6.75
2019-05-23T07:17:25.642Z,6.58
2019-05-23T07:19:59.523Z,7.15
2019-05-23T07:22:31.601Z,4.85
2019-05-23T07:25:01.419Z,5.22
2019-05-23T07:27:31.691Z,7.25
2019-05-23T07:30:01.366Z,5.33
2019-05-23T07:32:30.782Z,6.35
2019-05-23T07:35:01.532Z,6.05
2019-05-23T07:37:30.432Z,5.97
2019-05-23T07:40:11.211Z,6.70
2019-05-23T07:42:43.996Z,6.80
2019-05-23T07:45:39.620Z,5.47
2019-05-23T07:48:08.876Z,6.60
2019-05-23T07:50:48.620Z,7.15
2019-05-23T07:53:20.640Z,7.65
2019-05-23T07:55:59.347Z,6.57
2019-05-23T07:58:26.469Z,6.07
2019-05-23T08:01:01.039Z,6.37
2019-05-23T08:03:39.500Z,6.50
2019-05-23T08:06:10.659Z,6.00
2019-05-23T08:08:39.675Z,7.22
2019-05-23T08:11:10.398Z,6.12
2019-05-23T08:13:59.333Z,7.75
2019-05-23T08:16:47.577Z,7.87
2019-05-23T08:19:19.951Z,6.78
2019-05-23T08:21:51.912Z,6.10
2019-05-23T08:24:25.587Z,6.05
2019-05-23T08:26:55.766Z,7.50
2019-05-23T08:29:28.225Z,6.45
2019-05-23T08:31:59.531Z,6.45
2019-05-23T08:34:40.655Z,5.85
2019-05-23T08:36:59.876Z,6.03
2019-05-23T08:39:30.652Z,6.55
2019-05-23T08:42:10.088Z,5.95
2019-05-23T08:44:41.810Z,6.65
2019-05-23T08:47:16.551Z,5.87
2019-05-23T08:49:46.125Z,6.40
2019-05-23T08:52:19.921Z,8.35
2019-05-23T08:54:58.276Z,6.65
2019-05-23T08:57:38.386Z,5.75
2019-05-23T09:00:11.495Z,5.80
2019-05-23T09:02:42.065Z,6.53
2019-05-23T09:05:16.403Z,5.83
2019-05-23T09:07:50.254Z,6.30
2019-05-23T09:10:19.964Z,5.85
2019-05-23T09:12:57.114Z,5.33
2019-05-23T09:15:53.176Z,5.85
2019-05-23T09:18:31.464Z,5.40
2019-05-23T09:21:01.022Z,6.15
2019-05-23T09:23:29.907Z,5.13
2019-05-23T09:25:59.099Z,6.28
2019-05-23T09:28:28.437Z,5.12
2019-05-23T09:30:59.126Z,6.05
2019-05-23T09:33:28.414Z,6.92
2019-05-23T09:36:02.935Z,5.65
2019-05-23T09:38:32.268Z,6.40
2019-05-23T09:41:02.461Z,5.17
2019-05-23T09:43:32.968Z,6.93
2019-05-23T09:46:06.151Z,6.25
2019-05-23T09:48:36.495Z,5.30
2019-05-23T09:51:08.570Z,5.05
2019-05-23T09:53:39.781Z,6.08
2019-05-23T09:56:13.377Z,5.35
2019-05-23T09:58:42.966Z,7.62
2019-05-23T10:01:15.018Z,6.10
2019-05-23T10:03:44.933Z,5.65
2019-05-23T10:06:17.142Z,5.25
2019-05-23T10:08:46.184Z,5.35
2019-05-23T10:11:15.386Z,5.53
2019-05-23T10:13:44.901Z,5.28
2019-05-23T10:16:31.213Z,6.22
2019-05-23T10:19:16.739Z,6.58
2019-05-23T10:21:46.113Z,6.05
2019-05-23T10:24:18.735Z,4.55
2019-05-23T10:26:59.364Z,5.20
2019-05-23T10:29:28.126Z,5.22
2019-05-23T10:32:16.389Z,4.97
2019-05-23T10:34:54.747Z,5.03
2019-05-23T10:37:34.804Z,5.08
2019-05-23T10:40:35.476Z,5.35
2019-05-23T10:43:17.478Z,5.30
2019-05-23T10:45:51.268Z,4.60
2019-05-23T10:48:33.073Z,4.57
2019-05-23T10:51:02.682Z,3.55
2019-05-23T10:53:40.235Z,3.90
2019-05-23T10:56:12.460Z,3.30
2019-05-23T10:58:54.720Z,2.98
2019-05-23T11:01:42.073Z,3.00
2019-05-23T11:04:42.496Z,3.27
2019-05-23T11:07:12.273Z,3.37
2019-05-23T11:09:51.878Z,4.57
2019-05-23T11:12:21.693Z,3.33
2019-05-23T11:14:51.588Z,2.72
2019-05-23T11:17:24.392Z,3.63
2019-05-23T11:19:57.052Z,3.58
2019-05-23T11:22:28.315Z,3.05
2019-05-23T11:24:58.458Z,2.80
2019-05-23T11:27:31.052Z,2.90
2019-05-23T11:30:01.056Z,3.12
2019-05-23T11:32:31.236Z,2.50
2019-05-23T11:35:25.520Z,2.98
2019-05-23T11:37:55.615Z,2.22
2019-05-23T11:40:25.657Z,2.50
2019-05-23T11:42:55.833Z,2.33
2019-05-23T11:45:32.865Z,2.90
2019-05-23T11:48:25.292Z,2.30
2019-05-23T11:56:45.852Z,2.47
2019-05-23T11:59:40.947Z,2.42
2019-05-23T12:02:17.898Z,2.00
2019-05-23T12:04:47.469Z,2.67
2019-05-23T12:07:20.161Z,2.20
2019-05-23T12:09:59.800Z,3.08
2019-05-23T12:12:29.925Z,2.27
2019-05-23T12:15:04.955Z,2.70
2019-05-23T12:17:40.468Z,2.60
2019-05-23T12:20:14.249Z,2.55
2019-05-23T12:22:43.191Z,2.70
2019-05-23T12:25:21.876Z,2.77
2019-05-23T12:27:49.596Z,3.12
2019-05-23T12:30:20.643Z,2.83
2019-05-23T12:32:52.422Z,2.45
2019-05-23T12:35:24.276Z,4.30
2019-05-23T12:38:02.917Z,2.45
2019-05-23T12:40:30.340Z,2.65
2019-05-23T12:43:04.528Z,2.58
2019-05-23T12:45:34.011Z,2.67
2019-05-23T12:48:17.148Z,2.60
2019-05-23T12:50:54.064Z,4.20
2019-05-23T12:53:23.745Z,3.65
2019-05-23T12:55:56.273Z,4.00
2019-05-23T12:58:35.325Z,2.75
2019-05-23T13:01:07.443Z,3.10
2019-05-23T13:03:36.668Z,3.12
2019-05-23T13:06:06.619Z,2.87
2019-05-23T13:08:41.362Z,4.35
2019-05-23T13:14:22.282Z,3.40
2019-05-23T13:16:52.820Z,5.40
2019-05-23T13:19:22.195Z,3.37
2019-05-23T13:21:55.543Z,4.80
2019-05-23T13:24:48.808Z,3.37
2019-05-23T13:27:00.719Z,5.47
2019-05-23T13:29:31.502Z,2.83
2019-05-23T13:32:00.860Z,3.87
2019-05-23T13:34:31.023Z,2.80
2019-05-23T13:37:00.310Z,5.30
2019-05-23T13:42:22.373Z,2.75
2019-05-23T13:44:54.311Z,2.33
2019-05-23T13:47:27.453Z,2.60
2019-05-23T13:49:58.133Z,2.37
2019-05-23T13:52:30.213Z,2.50
2019-05-23T13:55:00.157Z,2.92
2019-05-23T13:57:29.180Z,2.83
2019-05-23T13:59:58.550Z,2.60
2019-05-23T14:02:27.833Z,5.42
2019-05-23T14:04:56.890Z,4.27
2019-05-23T14:10:19.932Z,2.97
2019-05-23T14:12:49.896Z,3.50
2019-05-23T14:15:27.471Z,2.53
2019-05-23T14:17:58.433Z,3.37
2019-05-23T14:20:30.431Z,2.30
2019-05-23T14:23:17.994Z,2.60
2019-05-23T14:25:48.006Z,2.40
2019-05-23T14:28:17.613Z,2.40
2019-05-23T14:31:08.178Z,2.80
2019-05-23T14:33:33.957Z,2.50
2019-05-23T14:36:14.578Z,2.60
2019-05-23T14:38:46.220Z,3.58
2019-05-23T14:41:16.242Z,2.75
2019-05-23T14:43:47.978Z,4.17
2019-05-23T14:46:19.005Z,2.33
2019-05-23T14:48:56.862Z,2.37
2019-05-23T14:51:30.847Z,2.35
2019-05-23T14:54:16.770Z,3.00
2019-05-23T14:56:46.919Z,2.40
2019-05-23T14:59:19.359Z,3.40
2019-05-23T15:02:01.518Z,3.25
2019-05-23T15:04:44.122Z,2.37
2019-05-23T15:07:23.066Z,2.20
2019-05-23T15:10:18.209Z,2.30
2019-05-23T15:12:50.050Z,2.27
2019-05-23T15:15:29.046Z,1.95
2019-05-23T15:17:56.555Z,3.30
2019-05-23T15:20:34.776Z,2.30
2019-05-23T15:23:03.904Z,2.80
2019-05-23T15:25:37.745Z,2.47
2019-05-23T15:28:08.193Z,2.40
2019-05-23T15:30:39.962Z,2.40
2019-05-23T15:33:12.717Z,2.40
2019-05-23T15:35:45.433Z,3.20
2019-05-23T15:38:15.072Z,2.30
2019-05-23T15:40:47.300Z,2.40
2019-05-23T15:43:20.415Z,2.98
2019-05-23T15:45:50.743Z,2.40
2019-05-23T15:48:26.652Z,2.30
2019-05-23T15:51:17.342Z,2.00
2019-05-23T15:53:47.998Z,2.10
2019-05-23T15:56:28.951Z,1.80
2019-05-23T15:59:16.146Z,2.30
2019-05-23T16:01:59.320Z,2.47
2019-05-23T16:04:35.291Z,2.40
2019-05-23T16:07:15.398Z,2.37
2019-05-23T16:09:51.679Z,1.77
2019-05-23T16:12:37.755Z,2.22
2019-05-23T16:15:07.808Z,3.00
2019-05-23T16:17:38.354Z,2.00
2019-05-23T16:20:10.531Z,2.10
2019-05-23T16:22:42.251Z,2.00
2019-05-23T16:25:13.914Z,2.52
2019-05-23T16:27:44.790Z,2.30
2019-05-23T16:30:13.726Z,2.25
2019-05-23T16:32:48.105Z,2.15
2019-05-23T16:35:28.181Z,3.22
2019-05-23T16:37:58.570Z,2.58
2019-05-23T16:40:27.508Z,2.20
2019-05-23T16:42:58.489Z,2.27
2019-05-23T16:45:28.043Z,2.80
2019-05-23T16:47:57.090Z,2.47
2019-05-23T16:50:27.237Z,2.30
2019-05-23T16:52:57.947Z,2.30
2019-05-23T16:55:36.297Z,2.10
2019-05-23T16:58:09.608Z,2.12
2019-05-23T17:01:00.252Z,2.10
2019-05-23T17:03:59.775Z,2.27
2019-05-23T17:06:37.805Z,2.17
2019-05-23T17:09:25.063Z,2.30
2019-05-23T17:11:57.027Z,2.05
2019-05-23T17:14:39.883Z,2.30
2019-05-23T17:17:49.016Z,2.00
2019-05-23T17:20:18.626Z,2.00
2019-05-23T17:22:52.360Z,2.10
2019-05-23T17:25:36.224Z,3.90
2019-05-23T17:28:22.594Z,2.10
2019-05-23T17:30:58.799Z,2.17
2019-05-23T17:33:36.276Z,2.60
2019-05-23T17:36:03.918Z,1.80
2019-05-23T17:38:33.809Z,2.52
2019-05-23T17:41:03.673Z,1.80
2019-05-23T17:43:33.147Z,1.82
2019-05-23T17:46:02.032Z,1.70
2019-05-23T17:48:31.584Z,1.70
2019-05-23T17:51:02.539Z,2.08
2019-05-23T17:53:31.584Z,1.80
2019-05-23T17:56:00.493Z,2.23
2019-05-23T17:58:29.515Z,2.27
2019-05-23T18:00:59.269Z,2.40
2019-05-23T18:03:32.331Z,2.17
2019-05-23T18:06:02.529Z,2.67
2019-05-23T18:08:32.134Z,1.87
2019-05-23T18:11:05.767Z,2.35
2019-05-23T18:13:37.799Z,4.30
2019-05-23T18:16:08.750Z,2.33
2019-05-23T18:18:38.664Z,1.95
2019-05-23T18:21:14.342Z,2.70
2019-05-23T18:23:46.175Z,2.17
2019-05-23T18:26:16.067Z,2.33
2019-05-23T18:28:45.003Z,2.30
2019-05-23T18:31:29.420Z,2.58
2019-05-23T18:34:01.390Z,2.65
2019-05-23T18:36:31.549Z,3.00
2019-05-23T18:39:01.088Z,2.42
2019-05-23T18:41:31.740Z,2.30
2019-05-23T18:44:03.663Z,4.17
2019-05-23T18:46:37.616Z,3.07
2019-05-23T18:49:12.185Z,2.50
2019-05-23T18:51:44.666Z,2.60
2019-05-23T18:54:14.195Z,2.40
2019-05-23T18:56:43.731Z,3.20
2019-05-23T18:59:17.084Z,3.60
2019-05-23T19:01:47.094Z,3.15
2019-05-23T19:04:23.231Z,3.77
2019-05-23T19:06:54.764Z,2.95
2019-05-23T19:09:28.210Z,2.40
2019-05-23T19:12:02.985Z,2.73
2019-05-23T19:14:35.414Z,2.83
2019-05-23T19:17:15.171Z,3.70
2019-05-23T19:19:47.861Z,2.10
2019-05-23T19:22:22.876Z,3.90
2019-05-23T19:24:55.895Z,3.50
2019-05-23T19:27:25.125Z,5.17
2019-05-23T19:29:56.258Z,2.92
2019-05-23T19:32:26.769Z,3.00
2019-05-23T19:34:56.421Z,3.62
2019-05-23T19:37:25.356Z,5.33
2019-05-23T19:39:55.908Z,2.80
2019-05-23T19:42:25.019Z,3.58
2019-05-23T19:45:07.498Z,3.55
2019-05-23T19:47:43.087Z,4.65
2019-05-23T19:50:12.383Z,3.10
2019-05-23T19:52:42.306Z,3.30
2019-05-23T19:55:11.822Z,5.08
2019-05-23T19:57:49.137Z,3.30
2019-05-23T20:00:22.013Z,3.67
2019-05-23T20:02:56.568Z,3.50
2019-05-23T20:05:35.484Z,3.33
2019-05-23T20:08:04.870Z,5.63
2019-05-23T20:10:36.972Z,3.35
2019-05-23T20:13:08.439Z,3.85
2019-05-23T20:15:38.825Z,3.72
2019-05-23T20:18:09.033Z,3.83
2019-05-23T20:20:39.210Z,3.85
2019-05-23T20:23:15.478Z,4.15
2019-05-23T20:25:43.539Z,4.20
2019-05-23T20:28:13.790Z,4.17
2019-05-23T20:30:45.208Z,4.03
2019-05-23T20:33:18.471Z,4.12
2019-05-23T20:35:53.265Z,4.60
2019-05-23T20:38:23.378Z,4.08
2019-05-23T20:40:55.560Z,4.08
2019-05-23T20:43:28.060Z,4.30
2019-05-23T20:45:57.638Z,4.62
2019-05-23T20:48:32.476Z,4.37
2019-05-23T20:51:06.225Z,5.25
2019-05-23T20:53:35.498Z,4.30
2019-05-23T20:56:05.599Z,5.62
2019-05-23T20:58:36.362Z,5.70
2019-05-23T21:01:16.550Z,5.50
2019-05-23T21:03:47.770Z,5.75
2019-05-23T21:06:17.216Z,4.05
2019-05-23T21:08:49.211Z,4.85
2019-05-23T21:11:19.684Z,4.40
2019-05-23T21:13:51.822Z,4.28
2019-05-23T21:16:22.676Z,4.97
2019-05-23T21:18:53.034Z,6.17
2019-05-23T21:21:23.092Z,5.22
2019-05-23T21:23:56.598Z,5.12
2019-05-23T21:26:25.869Z,4.12
2019-05-23T21:28:55.386Z,6.42
2019-05-23T21:31:26.862Z,5.72
2019-05-23T21:33:57.759Z,6.10
2019-05-23T21:36:28.387Z,3.90
2019-05-23T21:38:59.752Z,3.95
2019-05-23T21:41:29.497Z,3.80
2019-05-23T21:44:14.742Z,4.30
2019-05-23T21:46:43.855Z,4.20
2019-05-23T21:49:12.994Z,4.22
2019-05-23T21:51:44.036Z,4.30
2019-05-23T21:54:14.436Z,4.90
2019-05-23T21:56:45.239Z,4.90
2019-05-23T21:59:14.262Z,5.90
2019-05-23T22:02:01.143Z,5.17
2019-05-23T22:04:40.379Z,5.27
2019-05-23T22:07:11.338Z,6.08
2019-05-23T22:09:41.152Z,4.62
2019-05-23T22:12:12.628Z,5.03
2019-05-23T22:14:42.956Z,6.95
2019-05-23T22:17:15.546Z,18.48
2019-05-23T22:19:45.403Z,15.78
2019-05-23T22:22:17.298Z,10.03
2019-05-23T22:24:52.024Z,9.60
2019-05-23T22:27:27.490Z,6.72
2019-05-23T22:29:59.488Z,7.53
2019-05-23T22:32:35.606Z,9.98
2019-05-23T22:35:15.767Z,7.60
2019-05-23T22:37:49.311Z,6.55
2019-05-23T22:40:19.230Z,5.22
2019-05-23T22:42:48.529Z,5.05
2019-05-23T22:45:22.803Z,4.85
2019-05-23T22:47:54.432Z,5.62
2019-05-23T22:50:24.471Z,5.07
2019-05-23T22:52:58.159Z,6.47
2019-05-23T22:55:27.546Z,5.22
2019-05-23T22:58:02.377Z,5.00
2019-05-23T23:00:33.642Z,5.33
2019-05-23T23:03:05.199Z,6.50
2019-05-23T23:05:40.076Z,5.05
2019-05-23T23:08:09.145Z,6.10
2019-05-23T23:10:38.394Z,4.62
2019-05-23T23:13:07.235Z,6.47
2019-05-23T23:15:39.503Z,5.75
2019-05-23T23:18:13.490Z,5.60
2019-05-23T23:20:45.920Z,6.60
2019-05-23T23:23:18.065Z,7.25
2019-05-23T23:25:49.768Z,7.00
2019-05-23T23:28:21.894Z,5.97
2019-05-23T23:30:54.739Z,5.30
2019-05-23T23:33:26.832Z,5.70
2019-05-23T23:35:57.915Z,7.05
2019-05-23T23:38:28.073Z,5.62
2019-05-23T23:41:01.070Z,7.78
2019-05-23T23:43:34.048Z,7.40
2019-05-23T23:46:21.657Z,9.15
2019-05-23T23:49:08.340Z,6.78
2019-05-23T23:51:56.642Z,7.22
2019-05-23T23:54:45.817Z,7.25
2019-05-23T23:57:35.786Z,7.55
